Time;durP1;ratioP1;P1;durP2;ratioP2;P2;SDS_P1;SDS_P2;PMS_P1;PMS_P2;Temp;Humidity;BMP_temperature;BMP_pressure;BME280_temperature;BME280_humidity;BME280_pressure;Samples;Min_cycle;Max_cycle;Signal;HPM_P1;HPM_P2
2021/09/27 00:02:00;;;;;;;16.35;11.70;;;;;;;;;;5038772;28;20033;-87
2021/09/27 00:04:26;;;;;;;14.30;11.75;;;;;;;;;;5038203;28;20033;-87
2021/09/27 00:06:51;;;;;;;16.77;12.25;;;;;;;;;;5039202;28;20538;-86
2021/09/27 00:09:16;;;;;;;22.17;13.07;;;;;;;;;;5038474;28;20025;-87
2021/09/27 00:11:42;;;;;;;15.95;12.48;;;;;;;;;;5037337;28;20021;-87
2021/09/27 00:14:07;;;;;;;18.88;13.85;;;;;;;;;;5038453;28;20021;-87
2021/09/27 00:16:33;;;;;;;18.48;12.98;;;;;;;;;;5034457;28;20026;-87
2021/09/27 00:18:59;;;;;;;18.48;14.27;;;;;;;;;;5021593;28;20180;-87
2021/09/27 00:21:28;;;;;;;16.98;13.98;;;;;;;;;;5033732;28;20025;-86
2021/09/27 00:23:54;;;;;;;22.50;16.00;;;;;;;;;;5035026;28;20017;-86
2021/09/27 00:26:21;;;;;;;27.35;15.35;;;;;;;;;;5026092;28;20033;-86
2021/09/27 00:28:47;;;;;;;23.90;15.80;;;;;;;;;;5038242;28;20453;-86
2021/09/27 00:31:14;;;;;;;21.83;15.52;;;;;;;;;;5022915;28;20030;-86
2021/09/27 00:33:40;;;;;;;27.40;15.73;;;;;;;;;;5018799;28;20237;-87
2021/09/27 00:36:05;;;;;;;20.95;15.75;;;;;;;;;;5019002;28;20354;-86
2021/09/27 00:38:30;;;;;;;24.33;16.10;;;;;;;;;;5023868;28;20048;-87
2021/09/27 00:41:00;;;;;;;23.60;16.20;;;;;;;;;;5017092;28;20046;-86
2021/09/27 00:43:26;;;;;;;21.90;16.52;;;;;;;;;;5033545;28;20384;-86
2021/09/27 00:45:58;;;;;;;31.88;18.60;;;;;;;;;;5038553;28;20029;-86
2021/09/27 00:48:25;;;;;;;23.92;16.80;;;;;;;;;;5038145;28;20097;-86
2021/09/27 00:50:55;;;;;;;24.33;17.15;;;;;;;;;;5037673;28;20041;-87
2021/09/27 00:53:52;;;;;;;21.85;16.48;;;;;;;;;;5036885;28;20029;-86
2021/09/27 00:56:22;;;;;;;20.55;16.08;;;;;;;;;;5018838;28;20052;-86
2021/09/27 00:58:49;;;;;;;29.33;16.95;;;;;;;;;;5036864;28;20025;-87
2021/09/27 01:01:15;;;;;;;25.38;17.45;;;;;;;;;;5038920;28;20045;-87
2021/09/27 01:03:41;;;;;;;26.75;17.50;;;;;;;;;;5037410;28;20413;-87
2021/09/27 01:06:20;;;;;;;24.60;16.95;;;;;;;;;;5038166;28;20034;-87
2021/09/27 01:09:07;;;;;;;31.60;18.30;;;;;;;;;;5037651;28;20029;-87
2021/09/27 01:11:45;;;;;;;24.55;17.20;;;;;;;;;;5038388;28;20098;-87
2021/09/27 01:14:28;;;;;;;27.58;17.83;;;;;;;;;;5035599;28;20136;-85
2021/09/27 01:17:16;;;;;;;26.75;18.25;;;;;;;;;;5017429;28;20025;-87
2021/09/27 01:20:16;;;;;;;30.38;17.48;;;;;;;;;;5030785;28;20104;-86
2021/09/27 01:22:54;;;;;;;23.15;17.45;;;;;;;;;;4983847;28;20034;-86
2021/09/27 01:25:36;;;;;;;26.40;17.92;;;;;;;;;;5025731;28;20108;-86
2021/09/27 01:28:26;;;;;;;30.27;18.92;;;;;;;;;;5019132;28;20029;-86
2021/09/27 01:31:04;;;;;;;25.40;18.73;;;;;;;;;;5016335;28;20124;-86
2021/09/27 01:33:46;;;;;;;24.88;18.27;;;;;;;;;;5028439;28;20029;-86
2021/09/27 01:36:26;;;;;;;24.10;17.40;;;;;;;;;;5034452;28;20111;-86
2021/09/27 01:39:08;;;;;;;25.98;18.67;;;;;;;;;;5017835;28;20101;-87
2021/09/27 01:41:53;;;;;;;24.92;18.45;;;;;;;;;;5022169;28;20022;-86
2021/09/27 01:44:31;;;;;;;27.00;19.10;;;;;;;;;;5041440;28;20515;-86
2021/09/27 01:47:08;;;;;;;27.27;19.40;;;;;;;;;;5032867;28;20017;-86
2021/09/27 01:49:49;;;;;;;29.25;18.85;;;;;;;;;;5033617;28;20052;-87
2021/09/27 01:52:41;;;;;;;28.40;18.80;;;;;;;;;;5019418;28;20029;-86
2021/09/27 01:55:17;;;;;;;25.98;19.45;;;;;;;;;;5026367;28;20040;-86
2021/09/27 01:57:47;;;;;;;28.00;19.70;;;;;;;;;;5015214;28;20083;-85
2021/09/27 02:00:18;;;;;;;29.55;19.70;;;;;;;;;;5033212;28;20013;-86
2021/09/27 02:02:46;;;;;;;27.35;19.25;;;;;;;;;;5018115;28;20026;-86
2021/09/27 02:05:20;;;;;;;29.73;19.60;;;;;;;;;;5017866;28;20489;-87
2021/09/27 02:07:58;;;;;;;28.40;20.23;;;;;;;;;;5015893;28;20030;-86
2021/09/27 02:10:28;;;;;;;28.08;19.95;;;;;;;;;;5017710;28;20477;-86
2021/09/27 02:13:05;;;;;;;27.23;20.38;;;;;;;;;;5032873;28;20116;-86
2021/09/27 02:15:38;;;;;;;25.48;19.38;;;;;;;;;;5035714;28;20029;-86
2021/09/27 02:18:25;;;;;;;27.35;20.30;;;;;;;;;;5017794;28;20471;-86
2021/09/27 02:20:58;;;;;;;28.65;20.42;;;;;;;;;;5035085;28;20017;-86
2021/09/27 02:23:29;;;;;;;27.00;20.45;;;;;;;;;;5017493;28;20061;-86
2021/09/27 02:25:55;;;;;;;31.20;21.90;;;;;;;;;;5035742;28;20026;-86
2021/09/27 02:28:23;;;;;;;30.00;21.15;;;;;;;;;;5033082;28;20473;-86
2021/09/27 02:31:00;;;;;;;29.75;21.52;;;;;;;;;;5032671;28;20488;-86
2021/09/27 02:33:32;;;;;;;29.92;21.95;;;;;;;;;;5032853;28;20108;-86
2021/09/27 02:36:16;;;;;;;32.58;20.85;;;;;;;;;;5032447;28;20607;-85
2021/09/27 02:39:09;;;;;;;30.70;20.17;;;;;;;;;;5035961;28;20499;-86
2021/09/27 02:41:41;;;;;;;30.92;20.95;;;;;;;;;;5034855;28;20017;-86
2021/09/27 02:44:07;;;;;;;32.60;22.40;;;;;;;;;;5034656;28;20026;-86
2021/09/27 02:46:41;;;;;;;30.10;21.60;;;;;;;;;;5017310;28;20286;-87
2021/09/27 02:49:10;;;;;;;35.83;22.20;;;;;;;;;;5015191;28;20022;-86
2021/09/27 02:51:45;;;;;;;34.10;22.52;;;;;;;;;;5033263;28;20051;-85
2021/09/27 02:54:13;;;;;;;35.75;22.80;;;;;;;;;;5007350;28;20030;-87
2021/09/27 02:56:53;;;;;;;30.88;21.45;;;;;;;;;;5035696;28;20103;-86
2021/09/27 02:59:38;;;;;;;33.70;22.15;;;;;;;;;;5031564;28;20079;-86
2021/09/27 03:02:15;;;;;;;34.35;23.60;;;;;;;;;;5017977;28;20029;-87
2021/09/27 03:04:49;;;;;;;33.88;22.83;;;;;;;;;;5018347;28;20033;-86
2021/09/27 03:07:50;;;;;;;36.25;24.17;;;;;;;;;;5028469;28;20025;-86
2021/09/27 03:10:23;;;;;;;36.47;23.45;;;;;;;;;;5033525;28;20060;-86
2021/09/27 03:12:55;;;;;;;33.45;23.83;;;;;;;;;;5016924;28;20151;-86
2021/09/27 03:15:39;;;;;;;36.70;24.33;;;;;;;;;;5017419;28;20026;-86
2021/09/27 03:18:28;;;;;;;37.60;23.85;;;;;;;;;;5033157;28;20039;-86
2021/09/27 03:21:31;;;;;;;34.85;25.20;;;;;;;;;;5025985;28;20014;-85
2021/09/27 03:24:15;;;;;;;39.00;22.87;;;;;;;;;;5015590;28;20033;-86
2021/09/27 03:27:09;;;;;;;36.85;23.10;;;;;;;;;;5018211;28;20270;-86
2021/09/27 03:29:56;;;;;;;32.22;22.63;;;;;;;;;;5019409;28;20034;-86
2021/09/27 03:32:51;;;;;;;35.25;22.65;;;;;;;;;;5016618;28;20496;-86
2021/09/27 03:35:28;;;;;;;34.17;22.27;;;;;;;;;;5032839;28;20438;-86
2021/09/27 03:38:12;;;;;;;32.75;23.35;;;;;;;;;;5034950;28;20473;-86
2021/09/27 03:41:09;;;;;;;35.55;23.13;;;;;;;;;;5035540;28;20025;-87
2021/09/27 03:43:40;;;;;;;35.78;22.67;;;;;;;;;;5028600;28;20056;-87
2021/09/27 03:46:18;;;;;;;34.70;23.52;;;;;;;;;;5036032;28;20021;-87
2021/09/27 03:48:59;;;;;;;34.72;23.52;;;;;;;;;;5020532;28;20076;-86
2021/09/27 03:51:33;;;;;;;33.35;23.17;;;;;;;;;;5036637;28;20044;-86
2021/09/27 03:54:24;;;;;;;37.90;24.08;;;;;;;;;;5036185;28;20021;-87
2021/09/27 03:57:18;;;;;;;32.35;22.38;;;;;;;;;;5037628;28;20032;-87
2021/09/27 03:59:50;;;;;;;36.88;24.05;;;;;;;;;;5026092;28;20400;-86
2021/09/27 04:02:30;;;;;;;35.63;23.02;;;;;;;;;;5037101;28;20527;-86
2021/09/27 04:05:23;;;;;;;34.85;23.50;;;;;;;;;;5021488;28;20036;-86
2021/09/27 04:08:06;;;;;;;33.00;22.83;;;;;;;;;;5032699;28;20116;-86
2021/09/27 04:10:39;;;;;;;34.20;21.65;;;;;;;;;;5003746;28;20034;-86
2021/09/27 04:13:14;;;;;;;32.85;22.92;;;;;;;;;;5018455;28;20026;-85
2021/09/27 04:16:02;;;;;;;33.20;23.02;;;;;;;;;;5029634;28;20048;-86
2021/09/27 04:19:00;;;;;;;32.22;22.08;;;;;;;;;;5020239;28;20542;-86
2021/09/27 04:21:31;;;;;;;35.55;22.08;;;;;;;;;;5027075;28;20022;-87
2021/09/27 04:24:04;;;;;;;36.30;23.50;;;;;;;;;;5040897;28;20084;-86
2021/09/27 04:26:40;;;;;;;34.45;22.33;;;;;;;;;;5037085;28;20032;-87
2021/09/27 04:29:32;;;;;;;32.72;20.85;;;;;;;;;;5036636;28;20026;-87
2021/09/27 04:32:17;;;;;;;40.42;22.00;;;;;;;;;;5020354;28;20021;-87
2021/09/27 04:35:01;;;;;;;31.95;22.05;;;;;;;;;;5003118;28;20125;-87
2021/09/27 04:37:29;;;;;;;29.48;20.85;;;;;;;;;;5000672;28;20025;-86
2021/09/27 04:39:54;;;;;;;30.95;21.92;;;;;;;;;;5018609;28;20060;-88
2021/09/27 04:42:46;;;;;;;34.45;22.38;;;;;;;;;;5034760;28;20022;-87
2021/09/27 04:45:17;;;;;;;31.65;20.98;;;;;;;;;;5024497;28;20029;-86
2021/09/27 04:48:20;;;;;;;31.38;20.35;;;;;;;;;;5037567;28;20095;-86
2021/09/27 04:51:21;;;;;;;27.35;19.13;;;;;;;;;;5037506;28;20033;-86
2021/09/27 04:54:05;;;;;;;35.60;20.63;;;;;;;;;;5037363;28;20108;-87
2021/09/27 04:56:41;;;;;;;31.88;21.10;;;;;;;;;;5018219;28;20488;-86
2021/09/27 04:59:46;;;;;;;32.10;21.17;;;;;;;;;;5034791;28;20025;-86
2021/09/27 05:02:14;;;;;;;37.70;21.65;;;;;;;;;;5000278;28;20033;-86
2021/09/27 05:04:46;;;;;;;28.77;21.13;;;;;;;;;;5036471;28;20052;-86
2021/09/27 05:07:56;;;;;;;28.92;21.50;;;;;;;;;;5035038;28;20038;-85
2021/09/27 05:10:50;;;;;;;30.27;20.75;;;;;;;;;;4933708;29;20126;-85
2021/09/27 05:13:49;;;;;;;33.75;21.08;;;;;;;;;;4915738;29;20032;-77
2021/09/27 05:16:29;;;;;;;32.25;21.02;;;;;;;;;;5007929;28;20095;-79
2021/09/27 05:19:24;;;;;;;29.92;21.05;;;;;;;;;;5017213;28;20438;-76
2021/09/27 05:21:58;;;;;;;31.27;20.52;;;;;;;;;;5020149;28;20029;-76
2021/09/27 05:25:02;;;;;;;35.28;21.35;;;;;;;;;;5035005;28;20033;-76
2021/09/27 05:28:00;;;;;;;33.08;20.10;;;;;;;;;;5013225;28;20033;-78
2021/09/27 05:30:45;;;;;;;32.45;20.05;;;;;;;;;;5002732;28;20401;-77
2021/09/27 05:33:24;;;;;;;28.75;18.63;;;;;;;;;;5031745;28;20056;-85
2021/09/27 05:36:23;;;;;;;31.42;19.75;;;;;;;;;;5034492;28;20108;-86
2021/09/27 05:39:07;;;;;;;34.28;20.48;;;;;;;;;;5034107;28;20021;-86
2021/09/27 05:42:23;;;;;;;26.67;19.33;;;;;;;;;;5034029;28;20480;-86
2021/09/27 05:45:05;;;;;;;27.85;19.27;;;;;;;;;;4980837;28;20041;-86
2021/09/27 05:48:00;;;;;;;30.20;19.90;;;;;;;;;;5012963;28;20036;-86
2021/09/27 05:50:36;;;;;;;28.50;19.25;;;;;;;;;;5014113;28;20041;-86
2021/09/27 05:53:20;;;;;;;25.83;19.75;;;;;;;;;;5013901;28;20394;-85
2021/09/27 05:55:58;;;;;;;31.55;19.63;;;;;;;;;;4997487;28;20120;-86
2021/09/27 05:58:49;;;;;;;27.85;18.15;;;;;;;;;;5014526;28;20059;-86
2021/09/27 06:01:47;;;;;;;27.85;19.33;;;;;;;;;;5013955;28;20527;-86
2021/09/27 06:04:29;;;;;;;26.60;18.83;;;;;;;;;;5029320;28;20084;-86
2021/09/27 06:07:17;;;;;;;25.75;18.38;;;;;;;;;;5037093;28;20083;-85
2021/09/27 06:10:11;;;;;;;28.58;18.80;;;;;;;;;;5033388;28;20109;-86
2021/09/27 06:12:41;;;;;;;;;;;;;;;;;;5033745;28;20026;-86
2021/09/27 06:15:09;;;;;;;30.48;17.75;;;;;;;;;;5033899;28;19909;-86
2021/09/27 06:17:58;;;;;;;27.92;17.98;;;;;;;;;;5012786;28;20133;-85
2021/09/27 06:20:38;;;;;;;30.45;18.05;;;;;;;;;;5004453;28;20396;-85
2021/09/27 06:23:36;;;;;;;26.05;17.00;;;;;;;;;;5035320;28;20021;-86
2021/09/27 06:26:10;;;;;;;27.52;17.65;;;;;;;;;;5030447;28;20026;-86
2021/09/27 06:28:58;;;;;;;25.90;17.70;;;;;;;;;;5017345;28;20044;-86
2021/09/27 06:31:37;;;;;;;28.08;17.25;;;;;;;;;;5016829;28;20033;-86
2021/09/27 06:34:20;;;;;;;29.45;17.35;;;;;;;;;;5027463;28;20088;-85
2021/09/27 06:36:46;;;;;;;20.75;15.57;;;;;;;;;;5003567;28;20022;-86
2021/09/27 06:39:21;;;;;;;25.50;16.63;;;;;;;;;;4996632;28;20401;-85
2021/09/27 06:41:48;;;;;;;21.17;15.23;;;;;;;;;;5013738;28;20030;-86
2021/09/27 06:44:14;;;;;;;23.25;16.60;;;;;;;;;;5013738;28;20030;-85
2021/09/27 06:46:40;;;;;;;24.98;15.15;;;;;;;;;;4995966;28;20083;-86
2021/09/27 06:49:06;;;;;;;25.05;15.63;;;;;;;;;;5012756;28;20034;-85
2021/09/27 06:51:32;;;;;;;24.20;14.50;;;;;;;;;;5013013;28;20021;-85
2021/09/27 06:53:57;;;;;;;21.15;15.38;;;;;;;;;;5032383;28;20091;-86
2021/09/27 06:56:23;;;;;;;20.13;13.75;;;;;;;;;;5032863;28;20033;-86
2021/09/27 06:58:48;;;;;;;26.77;14.57;;;;;;;;;;5019956;28;20113;-86
2021/09/27 07:01:13;;;;;;;21.77;15.30;;;;;;;;;;5013077;28;20036;-86
2021/09/27 07:03:39;;;;;;;18.98;14.38;;;;;;;;;;5013347;28;20034;-86
2021/09/27 07:06:04;;;;;;;24.25;14.40;;;;;;;;;;4997365;28;20034;-86
2021/09/27 07:08:30;;;;;;;22.05;13.77;;;;;;;;;;5013380;28;20037;-86
2021/09/27 07:10:55;;;;;;;18.40;13.15;;;;;;;;;;5012596;28;20034;-86
2021/09/27 07:13:22;;;;;;;19.25;13.27;;;;;;;;;;5012969;28;20034;-85
2021/09/27 07:15:48;;;;;;;18.83;13.82;;;;;;;;;;5015107;28;20033;-85
2021/09/27 07:18:13;;;;;;;17.25;13.30;;;;;;;;;;5012891;28;20030;-85
2021/09/27 07:20:39;;;;;;;17.52;13.30;;;;;;;;;;4995579;28;20021;-86
2021/09/27 07:23:05;;;;;;;15.73;12.63;;;;;;;;;;5017408;28;20541;-85
2021/09/27 07:25:32;;;;;;;20.42;13.02;;;;;;;;;;5034274;28;20108;-85
2021/09/27 07:27:58;;;;;;;18.33;12.63;;;;;;;;;;5036095;28;20056;-85
2021/09/27 07:30:25;;;;;;;19.08;12.55;;;;;;;;;;5016716;28;20076;-85
2021/09/27 07:32:52;;;;;;;15.63;12.77;;;;;;;;;;5019913;28;20161;-85
2021/09/27 07:35:21;;;;;;;18.17;12.65;;;;;;;;;;5025597;28;20021;-85
2021/09/27 07:37:47;;;;;;;20.40;13.38;;;;;;;;;;5017387;28;20481;-85
2021/09/27 07:40:17;;;;;;;18.17;12.52;;;;;;;;;;5016220;28;20100;-85
2021/09/27 07:42:43;;;;;;;16.67;12.15;;;;;;;;;;5020619;28;20042;-85
2021/09/27 07:45:11;;;;;;;16.40;11.75;;;;;;;;;;5029314;28;20025;-85
2021/09/27 07:47:36;;;;;;;18.40;11.73;;;;;;;;;;5037894;28;20416;-85
2021/09/27 07:50:04;;;;;;;16.15;10.57;;;;;;;;;;5018093;28;20027;-85
2021/09/27 07:52:30;;;;;;;15.50;10.70;;;;;;;;;;5036170;28;20055;-86
2021/09/27 07:54:55;;;;;;;15.35;10.57;;;;;;;;;;5035594;28;20037;-85
2021/09/27 07:57:20;;;;;;;15.13;10.90;;;;;;;;;;5032370;28;20024;-86
2021/09/27 07:59:47;;;;;;;14.02;10.38;;;;;;;;;;5015699;28;20022;-86
2021/09/27 08:02:18;;;;;;;14.85;10.45;;;;;;;;;;5018692;28;20029;-85
2021/09/27 08:04:43;;;;;;;13.75;11.55;;;;;;;;;;5017644;28;20033;-85
2021/09/27 08:07:09;;;;;;;21.50;12.27;;;;;;;;;;5018089;28;20388;-85
2021/09/27 08:09:34;;;;;;;13.43;10.13;;;;;;;;;;5017333;28;20026;-85
2021/09/27 08:11:59;;;;;;;17.80;12.00;;;;;;;;;;5017392;28;20496;-86
2021/09/27 08:14:25;;;;;;;13.85;11.15;;;;;;;;;;5035455;28;20510;-85
2021/09/27 08:16:50;;;;;;;12.65;10.00;;;;;;;;;;5035486;28;20040;-85
2021/09/27 08:19:18;;;;;;;13.45;11.07;;;;;;;;;;5034961;28;20032;-86
2021/09/27 08:21:43;;;;;;;20.00;10.75;;;;;;;;;;5017635;28;20375;-84
2021/09/27 08:24:09;;;;;;;13.25;10.50;;;;;;;;;;5017523;28;20025;-85
2021/09/27 08:26:35;;;;;;;17.40;10.90;;;;;;;;;;5035990;28;20036;-86
2021/09/27 08:29:00;;;;;;;17.17;11.45;;;;;;;;;;5035155;28;20124;-86
2021/09/27 08:31:25;;;;;;;13.98;10.05;;;;;;;;;;5017125;28;20439;-86
2021/09/27 08:33:53;;;;;;;13.18;9.88;;;;;;;;;;5014328;28;20025;-86
2021/09/27 08:36:20;;;;;;;11.73;9.65;;;;;;;;;;4997955;28;20041;-86
2021/09/27 08:38:46;;;;;;;14.52;10.90;;;;;;;;;;5008181;28;20025;-86
2021/09/27 08:41:26;;;;;;;17.85;11.02;;;;;;;;;;5035992;28;20508;-87
2021/09/27 08:44:01;;;;;;;13.32;10.38;;;;;;;;;;5033418;28;20067;-85
2021/09/27 08:46:36;;;;;;;14.00;10.20;;;;;;;;;;4999528;28;20053;-86
2021/09/27 08:49:14;;;;;;;13.57;9.85;;;;;;;;;;5007372;28;20033;-85
2021/09/27 08:51:39;;;;;;;14.07;9.93;;;;;;;;;;4999393;28;20405;-86
2021/09/27 08:54:16;;;;;;;10.95;9.73;;;;;;;;;;5014936;28;20028;-85
2021/09/27 08:56:53;;;;;;;13.07;9.90;;;;;;;;;;5025681;28;20022;-86
2021/09/27 08:59:40;;;;;;;12.05;9.48;;;;;;;;;;5042009;28;20392;-86
2021/09/27 09:02:22;;;;;;;12.60;9.75;;;;;;;;;;5039255;28;20112;-86
2021/09/27 09:05:18;;;;;;;12.00;9.63;;;;;;;;;;5036821;28;20400;-86
2021/09/27 09:08:04;;;;;;;14.23;9.77;;;;;;;;;;5024044;28;20113;-86
2021/09/27 09:10:46;;;;;;;11.90;9.80;;;;;;;;;;5024403;28;20029;-86
2021/09/27 09:13:21;;;;;;;12.80;9.15;;;;;;;;;;5034378;28;20028;-86
2021/09/27 09:15:58;;;;;;;14.45;8.63;;;;;;;;;;5035037;28;20029;-86
2021/09/27 09:18:29;;;;;;;14.80;8.57;;;;;;;;;;5017320;28;20056;-86
2021/09/27 09:21:04;;;;;;;15.50;8.85;;;;;;;;;;5034438;28;20021;-86
2021/09/27 09:23:44;;;;;;;11.95;8.15;;;;;;;;;;5016510;28;20056;-86
2021/09/27 09:26:13;;;;;;;13.70;8.98;;;;;;;;;;5016345;28;20026;-86
2021/09/27 09:28:40;;;;;;;11.23;9.20;;;;;;;;;;5033986;28;20547;-86
2021/09/27 09:31:22;;;;;;;12.05;8.32;;;;;;;;;;5033963;28;20033;-86
2021/09/27 09:33:54;;;;;;;11.52;8.43;;;;;;;;;;5016676;28;20025;-86
2021/09/27 09:36:50;;;;;;;14.52;8.93;;;;;;;;;;5034643;28;20021;-86
2021/09/27 09:39:24;;;;;;;12.63;9.27;;;;;;;;;;5001986;28;20025;-86
2021/09/27 09:41:52;;;;;;;10.88;8.70;;;;;;;;;;5014084;28;20026;-86
2021/09/27 09:44:25;;;;;;;14.85;8.18;;;;;;;;;;5015014;28;20026;-86
2021/09/27 09:47:17;;;;;;;10.43;8.60;;;;;;;;;;5033665;28;20021;-86
2021/09/27 09:50:04;;;;;;;12.80;8.48;;;;;;;;;;5018651;28;20041;-86
2021/09/27 09:52:50;;;;;;;11.75;9.02;;;;;;;;;;5015451;28;20037;-86
2021/09/27 09:55:22;;;;;;;12.57;8.75;;;;;;;;;;5017320;28;20025;-86
2021/09/27 09:58:01;;;;;;;9.32;8.35;;;;;;;;;;5012977;28;20033;-86
2021/09/27 10:00:47;;;;;;;11.45;7.57;;;;;;;;;;5014260;28;20026;-86
2021/09/27 10:03:16;;;;;;;8.93;7.97;;;;;;;;;;5008124;28;20033;-86
2021/09/27 10:05:47;;;;;;;9.75;7.78;;;;;;;;;;5034581;28;20024;-86
2021/09/27 10:08:26;;;;;;;10.90;7.75;;;;;;;;;;5017875;28;20049;-86
2021/09/27 10:11:23;;;;;;;10.40;7.53;;;;;;;;;;5013559;28;20030;-86
2021/09/27 10:13:52;;;;;;;10.50;7.72;;;;;;;;;;5019618;28;20094;-86
2021/09/27 10:16:29;;;;;;;10.68;7.25;;;;;;;;;;5055937;28;20021;-87
2021/09/27 10:19:12;;;;;;;10.45;7.93;;;;;;;;;;5039834;28;20030;-87
2021/09/27 10:21:38;;;;;;;10.65;7.55;;;;;;;;;;5056682;28;20020;-87
2021/09/27 10:24:30;;;;;;;11.48;7.93;;;;;;;;;;5040427;28;20033;-86
2021/09/27 10:26:58;;;;;;;11.82;7.40;;;;;;;;;;5021582;28;20025;-87
2021/09/27 10:29:27;;;;;;;7.82;6.78;;;;;;;;;;5023102;28;20367;-86
2021/09/27 10:32:06;;;;;;;10.38;7.32;;;;;;;;;;5031563;28;20112;-86
2021/09/27 10:34:33;;;;;;;12.18;7.47;;;;;;;;;;5020714;28;20112;-86
2021/09/27 10:37:08;;;;;;;10.98;7.95;;;;;;;;;;5039048;28;20125;-87
2021/09/27 10:39:35;;;;;;;7.35;6.47;;;;;;;;;;5039400;28;20124;-86
2021/09/27 10:42:04;;;;;;;7.75;6.80;;;;;;;;;;5046004;28;20177;-87
2021/09/27 10:44:40;;;;;;;9.73;6.60;;;;;;;;;;5039972;28;20033;-86
2021/09/27 10:47:26;;;;;;;9.88;6.45;;;;;;;;;;5040288;28;20021;-86
2021/09/27 10:50:30;;;;;;;10.07;6.68;;;;;;;;;;5038543;28;20029;-86
2021/09/27 10:53:28;;;;;;;9.85;7.38;;;;;;;;;;4976176;28;20061;-87
2021/09/27 10:56:11;;;;;;;9.18;6.45;;;;;;;;;;5018856;28;20397;-86
2021/09/27 10:58:44;;;;;;;11.27;7.35;;;;;;;;;;5019838;28;20061;-86
2021/09/27 11:01:29;;;;;;;11.40;6.43;;;;;;;;;;5028195;28;20021;-86
2021/09/27 11:03:55;;;;;;;9.38;6.20;;;;;;;;;;5041742;28;20021;-87
2021/09/27 11:06:30;;;;;;;7.80;6.45;;;;;;;;;;5029318;28;20037;-87
2021/09/27 11:09:08;;;;;;;8.60;6.40;;;;;;;;;;5043800;28;20073;-87
2021/09/27 11:11:36;;;;;;;11.15;6.63;;;;;;;;;;5041747;28;20485;-86
2021/09/27 11:14:22;;;;;;;13.88;6.43;;;;;;;;;;5041510;28;20094;-85
2021/09/27 11:16:56;;;;;;;7.38;6.15;;;;;;;;;;5042603;28;20144;-86
2021/09/27 11:19:33;;;;;;;8.65;5.95;;;;;;;;;;5045015;28;20095;-87
2021/09/27 11:22:14;;;;;;;8.25;6.38;;;;;;;;;;5041085;28;20026;-87
2021/09/27 11:24:42;;;;;;;6.28;5.68;;;;;;;;;;5021200;28;20393;-87
2021/09/27 11:27:30;;;;;;;7.10;5.90;;;;;;;;;;5020284;28;20095;-87
2021/09/27 11:30:16;;;;;;;7.85;6.03;;;;;;;;;;5034939;28;20095;-86
2021/09/27 11:32:44;;;;;;;11.02;5.95;;;;;;;;;;5041862;28;20052;-86
2021/09/27 11:35:16;;;;;;;8.52;6.00;;;;;;;;;;5040367;28;20052;-87
2021/09/27 11:37:41;;;;;;;7.30;5.72;;;;;;;;;;5040460;28;20045;-86
2021/09/27 11:40:06;;;;;;;8.10;5.68;;;;;;;;;;5022231;28;20029;-86
2021/09/27 11:42:34;;;;;;;10.00;5.63;;;;;;;;;;5040048;28;20104;-87
2021/09/27 11:45:00;;;;;;;9.02;5.45;;;;;;;;;;5022102;28;20267;-87
2021/09/27 11:47:46;;;;;;;11.38;5.00;;;;;;;;;;5040051;28;20017;-87
2021/09/27 11:50:33;;;;;;;7.88;4.43;;;;;;;;;;5039206;28;20492;-87
2021/09/27 11:53:36;;;;;;;12.80;5.20;;;;;;;;;;4990906;28;20132;-86
2021/09/27 11:56:27;;;;;;;9.13;5.70;;;;;;;;;;5026022;28;20080;-86
2021/09/27 11:59:06;;;;;;;6.13;4.68;;;;;;;;;;5019535;28;20537;-85
2021/09/27 12:01:53;;;;;;;6.95;4.65;;;;;;;;;;5037201;28;20025;-85
2021/09/27 12:04:40;;;;;;;8.80;4.53;;;;;;;;;;5036479;28;20029;-86
2021/09/27 12:07:11;;;;;;;5.82;4.28;;;;;;;;;;5000588;28;20025;-86
2021/09/27 12:09:44;;;;;;;8.15;4.10;;;;;;;;;;5004393;28;20033;-86
2021/09/27 12:12:19;;;;;;;9.85;4.50;;;;;;;;;;5036891;28;20496;-85
2021/09/27 12:14:48;;;;;;;6.80;3.90;;;;;;;;;;5019411;28;20033;-86
2021/09/27 12:17:17;;;;;;;6.38;4.35;;;;;;;;;;5036002;28;20029;-85
2021/09/27 12:19:49;;;;;;;7.45;4.28;;;;;;;;;;5009135;28;20057;-85
2021/09/27 12:22:20;;;;;;;;;;;;;;;;;;5016150;28;20018;-85
2021/09/27 12:24:45;;;;;;;6.32;4.10;;;;;;;;;;5015915;28;19979;-85
2021/09/27 12:27:20;;;;;;;6.15;4.10;;;;;;;;;;4998125;28;20025;-85
2021/09/27 12:29:59;;;;;;;8.90;4.53;;;;;;;;;;5015640;28;20079;-86
2021/09/27 12:32:48;;;;;;;5.38;4.00;;;;;;;;;;5004148;28;20168;-86
2021/09/27 12:35:23;;;;;;;6.47;4.18;;;;;;;;;;5015421;28;20485;-85
2021/09/27 12:37:52;;;;;;;6.82;3.58;;;;;;;;;;4998394;28;20042;-85
2021/09/27 12:40:21;;;;;;;6.57;3.72;;;;;;;;;;5015445;28;20417;-85
2021/09/27 12:42:51;;;;;;;4.15;3.75;;;;;;;;;;5015775;28;20116;-85
2021/09/27 12:45:23;;;;;;;5.25;3.53;;;;;;;;;;5015585;28;20117;-85
2021/09/27 12:47:49;;;;;;;4.82;3.72;;;;;;;;;;5015727;28;20108;-85
2021/09/27 12:50:22;;;;;;;6.43;3.63;;;;;;;;;;4997802;28;20112;-86
2021/09/27 12:52:55;;;;;;;7.03;3.85;;;;;;;;;;5016821;28;20045;-86
2021/09/27 12:55:22;;;;;;;;;;;;;;;;;;5040212;28;20032;-86
2021/09/27 12:57:52;;;;;;;4.75;3.58;;;;;;;;;;5036809;28;19917;-85
2021/09/27 13:00:39;;;;;;;6.85;4.30;;;;;;;;;;5017681;28;20024;-86
2021/09/27 13:03:08;;;;;;;8.35;3.55;;;;;;;;;;5036373;28;20045;-86
2021/09/27 13:06:12;;;;;;;6.53;3.40;;;;;;;;;;5017018;28;20021;-86
2021/09/27 13:08:46;;;;;;;4.60;3.25;;;;;;;;;;5023855;28;20045;-87
2021/09/27 13:11:32;;;;;;;6.13;3.13;;;;;;;;;;4998033;28;20076;-84
2021/09/27 13:14:13;;;;;;;7.40;3.35;;;;;;;;;;5019432;28;20481;-85
2021/09/27 13:16:41;;;;;;;4.95;2.63;;;;;;;;;;5036076;28;20032;-86
2021/09/27 13:19:09;;;;;;;5.32;3.05;;;;;;;;;;5004099;28;20040;-84
2021/09/27 13:21:47;;;;;;;4.65;2.92;;;;;;;;;;5035410;28;20104;-83
2021/09/27 13:24:21;;;;;;;4.70;2.28;;;;;;;;;;5005927;28;20021;-84
2021/09/27 13:27:08;;;;;;;4.75;2.95;;;;;;;;;;5013613;28;20108;-84
2021/09/27 13:29:39;;;;;;;5.00;3.13;;;;;;;;;;5014848;28;20057;-84
2021/09/27 13:32:11;;;;;;;6.80;3.03;;;;;;;;;;4997438;28;20029;-84
2021/09/27 13:34:44;;;;;;;7.32;2.90;;;;;;;;;;5014591;28;20030;-84
2021/09/27 13:37:36;;;;;;;8.88;2.90;;;;;;;;;;5031689;28;20392;-84
2021/09/27 13:40:19;;;;;;;6.22;3.28;;;;;;;;;;5017129;28;20022;-84
2021/09/27 13:42:52;;;;;;;6.63;3.00;;;;;;;;;;5024560;28;20037;-84
2021/09/27 13:45:33;;;;;;;6.20;2.97;;;;;;;;;;5036535;28;20083;-84
2021/09/27 13:47:59;;;;;;;5.40;2.90;;;;;;;;;;5017842;28;20044;-82
2021/09/27 13:50:24;;;;;;;5.03;2.47;;;;;;;;;;5036158;28;20025;-85
2021/09/27 13:53:02;;;;;;;8.77;2.50;;;;;;;;;;5039326;28;20029;-84
2021/09/27 13:55:28;;;;;;;7.28;3.10;;;;;;;;;;5034356;28;20036;-85
2021/09/27 13:57:54;;;;;;;5.90;2.72;;;;;;;;;;5035053;28;20072;-85
2021/09/27 14:00:19;;;;;;;7.05;2.72;;;;;;;;;;5016768;28;20025;-85
2021/09/27 14:02:45;;;;;;;4.85;2.72;;;;;;;;;;5034983;28;20108;-84
2021/09/27 14:05:10;;;;;;;2.85;2.63;;;;;;;;;;5033488;28;20076;-88
2021/09/27 14:07:36;;;;;;;7.05;3.45;;;;;;;;;;5016745;28;20507;-85
2021/09/27 14:10:03;;;;;;;4.75;2.80;;;;;;;;;;5017127;28;20037;-88
2021/09/27 14:12:29;;;;;;;3.40;2.80;;;;;;;;;;5016295;28;20043;-85
2021/09/27 14:14:54;;;;;;;5.82;2.80;;;;;;;;;;5016765;28;20493;-86
2021/09/27 14:17:21;;;;;;;6.32;2.80;;;;;;;;;;5034105;28;20473;-85
2021/09/27 14:19:49;;;;;;;4.93;2.90;;;;;;;;;;5017847;28;20055;-86
2021/09/27 14:22:15;;;;;;;5.85;2.72;;;;;;;;;;5019574;28;20021;-85
2021/09/27 14:24:41;;;;;;;7.30;3.50;;;;;;;;;;5035575;28;20029;-85
2021/09/27 14:27:06;;;;;;;6.75;2.80;;;;;;;;;;5034857;28;20048;-84
2021/09/27 14:29:32;;;;;;;4.15;2.78;;;;;;;;;;5015096;28;20503;-85
2021/09/27 14:31:58;;;;;;;4.20;3.03;;;;;;;;;;5016526;28;20477;-84
2021/09/27 14:34:23;;;;;;;4.43;3.08;;;;;;;;;;5035174;28;20029;-84
2021/09/27 14:36:48;;;;;;;4.78;2.72;;;;;;;;;;5035590;28;20039;-84
2021/09/27 14:39:14;;;;;;;5.13;2.90;;;;;;;;;;5017512;28;20020;-84
2021/09/27 14:41:39;;;;;;;5.78;3.03;;;;;;;;;;5016876;28;20477;-84
2021/09/27 14:44:04;;;;;;;5.63;2.92;;;;;;;;;;5035070;28;20112;-84
2021/09/27 14:46:30;;;;;;;5.32;2.83;;;;;;;;;;5021935;28;20075;-85
2021/09/27 14:48:55;;;;;;;4.38;2.58;;;;;;;;;;5033630;28;20033;-84
2021/09/27 14:51:21;;;;;;;5.78;3.17;;;;;;;;;;5033368;28;20025;-84
2021/09/27 14:53:46;;;;;;;3.88;2.90;;;;;;;;;;5033943;28;20495;-84
2021/09/27 14:56:13;;;;;;;4.97;3.05;;;;;;;;;;5010702;28;20026;-84
2021/09/27 14:58:39;;;;;;;5.90;3.53;;;;;;;;;;4996915;28;20056;-85
2021/09/27 15:01:07;;;;;;;8.40;3.25;;;;;;;;;;4998564;28;20018;-84
2021/09/27 15:03:32;;;;;;;5.82;3.08;;;;;;;;;;4996620;28;20030;-85
2021/09/27 15:05:58;;;;;;;7.20;3.30;;;;;;;;;;5014694;28;20141;-85
2021/09/27 15:08:23;;;;;;;5.20;3.45;;;;;;;;;;4997448;28;20032;-84
2021/09/27 15:10:51;;;;;;;3.50;2.95;;;;;;;;;;5016882;28;20401;-85
2021/09/27 15:13:17;;;;;;;9.32;3.10;;;;;;;;;;5029199;28;20033;-84
2021/09/27 15:15:47;;;;;;;10.30;3.03;;;;;;;;;;5033524;28;20025;-84
2021/09/27 15:18:22;;;;;;;5.03;3.22;;;;;;;;;;5032486;28;20133;-85